Time;durP1;ratioP1;P1;durP2;ratioP2;P2;SDS_P1;SDS_P2;PMS_P1;PMS_P2;Temp;Humidity;BMP_temperature;BMP_pressure;BME280_temperature;BME280_humidity;BME280_pressure;Samples;Min_cycle;Max_cycle;Signal;HPM_P1;HPM_P2
2023/06/20 00:02:45;;;;;;;16.15;8.80;;;;;;;25.03;57.08;98082.59;4503913;26;20450;-82
2023/06/20 00:05:12;;;;;;;16.10;8.57;;;;;;;25.71;55.13;98079.13;4456881;32;20436;-82
2023/06/20 00:07:39;;;;;;;17.00;9.00;;;;;;;25.14;56.66;98078.84;4456536;32;20093;-82
2023/06/20 00:10:08;;;;;;;14.75;8.80;;;;;;;25.61;54.60;98073.13;4460916;26;20140;-82
2023/06/20 00:12:35;;;;;;;14.30;8.32;;;;;;;25.29;55.44;98077.28;4455657;32;20107;-82
2023/06/20 00:15:02;;;;;;;15.18;9.27;;;;;;;25.21;55.74;98071.16;4456555;32;20152;-82
2023/06/20 00:17:29;;;;;;;15.10;8.65;;;;;;;25.54;54.58;98067.66;4456737;32;20152;-82
2023/06/20 00:19:56;;;;;;;14.27;9.20;;;;;;;25.31;55.46;98072.69;4769317;26;20100;-82
2023/06/20 00:22:23;;;;;;;15.90;8.93;;;;;;;24.98;56.24;98071.63;4456641;32;20119;-83
2023/06/20 00:24:50;;;;;;;13.15;8.38;;;;;;;24.93;57.05;98079.19;4456646;32;20081;-82
2023/06/20 00:27:17;;;;;;;13.40;8.57;;;;;;;25.33;55.28;98068.06;4456392;32;20160;-82
2023/06/20 00:32:19;;;;;;;14.23;8.95;;;;;;;24.69;57.45;98071.13;4547253;26;20128;-83
2023/06/20 00:34:46;;;;;;;15.32;9.18;;;;;;;24.31;59.05;98067.81;4456371;32;20137;-82
2023/06/20 00:37:13;;;;;;;14.85;9.45;;;;;;;24.09;59.92;98055.06;4456696;32;20101;-82
2023/06/20 00:39:40;;;;;;;14.40;8.98;;;;;;;23.81;60.06;98057.75;4456206;32;20123;-82
2023/06/20 00:42:19;;;;;;;14.57;8.60;;;;;;;24.80;56.86;98050.56;4442310;32;20088;-82
2023/06/20 00:44:46;;;;;;;13.48;8.27;;;;;;;24.96;55.49;98063.03;4456680;32;20100;-82
2023/06/20 00:47:17;;;;;;;15.48;9.07;;;;;;;24.98;54.96;98066.34;4456573;32;20165;-82
2023/06/20 00:49:49;;;;;;;16.92;9.23;;;;;;;24.47;56.71;98065.34;4455970;32;20497;-82
2023/06/20 00:52:18;;;;;;;15.00;9.02;;;;;;;23.83;59.07;98060.25;4442635;32;20092;-82
2023/06/20 00:54:47;;;;;;;14.93;9.35;;;;;;;24.11;57.88;98063.66;4456149;32;20097;-82
2023/06/20 00:57:16;;;;;;;14.95;9.23;;;;;;;24.39;57.32;98065.28;4456498;32;20102;-82
2023/06/20 00:59:47;;;;;;;15.07;8.68;;;;;;;23.63;59.39;98062.19;4484621;26;20124;-82
2023/06/20 01:02:14;;;;;;;16.70;9.30;;;;;;;23.86;58.86;98063.41;4456186;32;20064;-82
2023/06/20 01:04:43;;;;;;;13.77;8.88;;;;;;;23.78;59.55;98070.41;4456306;32;20519;-82
2023/06/20 01:07:29;;;;;;;15.25;8.85;;;;;;;23.31;61.80;98066.03;4456337;32;20164;-82
2023/06/20 01:10:11;;;;;;;14.93;9.10;;;;;;;23.61;60.90;98061.50;4710073;26;20208;-82
2023/06/20 01:12:56;;;;;;;16.42;9.48;;;;;;;23.29;62.29;98051.38;4456301;32;20092;-82
2023/06/20 01:15:35;;;;;;;15.57;9.75;;;;;;;23.34;62.56;98055.22;4456400;32;20464;-82
2023/06/20 01:18:08;;;;;;;16.05;9.30;;;;;;;24.23;59.37;98051.91;4456191;32;20108;-82
2023/06/20 01:20:49;;;;;;;16.85;9.18;;;;;;;23.91;59.78;98041.87;4455586;32;20097;-82
2023/06/20 01:23:39;;;;;;;16.23;8.93;;;;;;;24.45;57.56;98045.34;4455973;32;20148;-82
2023/06/20 01:26:11;;;;;;;13.25;8.52;;;;;;;24.62;56.33;98049.78;4456147;32;20093;-82
2023/06/20 01:28:45;;;;;;;14.75;8.82;;;;;;;24.46;56.77;98047.88;4456174;32;20452;-82
2023/06/20 01:31:14;;;;;;;15.60;9.48;;;;;;;24.34;56.34;98048.22;4441953;32;20144;-82
2023/06/20 01:33:51;;;;;;;16.95;9.75;;;;;;;24.15;56.90;98041.31;4442137;32;20164;-82
2023/06/20 01:36:21;;;;;;;16.58;9.43;;;;;;;23.94;57.79;98042.44;4442321;32;20157;-82
2023/06/20 01:41:44;;;;;;;17.95;8.77;;;;;;;24.40;56.66;98050.28;4393294;32;20094;-82
2023/06/20 01:44:13;;;;;;;14.27;8.68;;;;;;;23.55;59.28;98040.97;4380966;32;20548;-82
2023/06/20 01:46:40;;;;;;;16.08;9.27;;;;;;;23.65;59.22;98050.50;4368909;32;20121;-82
2023/06/20 01:51:56;;;;;;;17.40;8.77;;;;;;;23.48;59.47;98043.34;4571753;27;20098;-82
2023/06/20 01:54:27;;;;;;;15.10;8.90;;;;;;;23.34;60.06;98038.59;4425213;32;20157;-82
2023/06/20 01:56:57;;;;;;;14.93;8.05;;;;;;;23.52;60.06;98031.56;4425127;32;20529;-82
2023/06/20 02:04:41;;;;;;;14.07;8.40;;;;;;;23.85;57.25;98039.84;4422148;32;20125;-82
2023/06/20 02:07:09;;;;;;;15.18;8.80;;;;;;;23.66;57.90;98033.72;4424662;32;20161;-82
2023/06/20 02:12:26;;;;;;;14.50;8.50;;;;;;;23.55;58.40;98030.44;4580305;26;20456;-82
2023/06/20 02:14:54;;;;;;;14.35;8.38;;;;;;;23.32;59.32;98019.47;4440146;32;20151;-82
2023/06/20 02:17:21;;;;;;;14.87;8.45;;;;;;;24.11;56.87;98019.66;4426393;32;20105;-82
2023/06/20 02:19:48;;;;;;;14.25;8.02;;;;;;;24.69;53.97;98023.62;4571547;26;20278;-82
2023/06/20 02:22:16;;;;;;;13.30;8.52;;;;;;;24.59;53.51;98031.62;4424296;32;20429;-82
2023/06/20 02:24:44;;;;;;;15.80;8.05;;;;;;;24.22;54.70;98034.44;4411077;32;20137;-82
2023/06/20 02:27:13;;;;;;;16.37;7.87;;;;;;;24.63;53.62;98034.78;4410657;32;20110;-82
2023/06/20 02:32:16;;;;;;;15.05;8.80;;;;;;;24.18;55.12;98041.00;4487314;26;20252;-82
2023/06/20 02:34:45;;;;;;;15.23;8.93;;;;;;;23.72;56.40;98042.84;4425756;32;20226;-82
2023/06/20 02:37:12;;;;;;;16.65;8.65;;;;;;;23.18;58.28;98036.59;4441122;32;20133;-82
2023/06/20 02:42:15;;;;;;;16.58;8.05;;;;;;;24.40;54.76;98037.91;4469366;26;20152;-82
2023/06/20 02:44:42;;;;;;;13.75;8.18;;;;;;;24.30;55.22;98041.59;4441858;32;20381;-82
2023/06/20 02:47:15;;;;;;;14.55;8.43;;;;;;;24.65;53.52;98038.91;4441450;32;20157;-82
2023/06/20 02:52:48;;;;;;;16.10;9.05;;;;;;;23.79;56.04;98038.62;4561806;26;20094;-82
2023/06/20 02:55:25;;;;;;;14.82;8.50;;;;;;;24.33;54.78;98033.41;4441750;32;20148;-82
2023/06/20 02:57:56;;;;;;;16.02;8.45;;;;;;;24.52;54.01;98035.84;4441842;32;20089;-82
2023/06/20 03:03:10;;;;;;;15.80;8.75;;;;;;;24.64;53.42;98039.06;4382802;30;20098;-82
2023/06/20 03:05:40;;;;;;;15.90;8.55;;;;;;;24.63;53.19;98040.88;4426326;32;20149;-82
2023/06/20 03:08:07;;;;;;;14.65;7.85;;;;;;;24.79;52.48;98042.81;4426097;32;20113;-82
2023/06/20 03:10:35;;;;;;;14.57;8.07;;;;;;;24.48;53.37;98058.25;4411500;32;20118;-82
2023/06/20 03:13:05;;;;;;;14.15;8.52;;;;;;;24.14;54.26;98050.19;4425142;32;20165;-82
2023/06/20 03:15:33;;;;;;;15.85;8.50;;;;;;;24.16;54.42;98054.31;4425989;32;20111;-82
2023/06/20 03:18:00;;;;;;;16.42;8.50;;;;;;;23.50;57.06;98041.44;4426252;32;20460;-82
2023/06/20 03:23:02;;;;;;;13.70;7.87;;;;;;;24.20;56.57;98052.22;4547522;26;20171;-82
2023/06/20 03:25:29;;;;;;;17.10;8.02;;;;;;;24.49;55.41;98050.19;4457064;32;20141;-82
2023/06/20 03:27:56;;;;;;;14.30;8.35;;;;;;;25.38;51.76;98057.84;4457105;32;20103;-82
2023/06/20 03:30:23;;;;;;;14.10;7.85;;;;;;;25.10;52.33;98059.03;4456049;32;20115;-82
2023/06/20 03:32:50;;;;;;;13.32;8.00;;;;;;;24.88;52.63;98060.34;4443106;32;20123;-82
2023/06/20 03:35:17;;;;;;;15.10;7.80;;;;;;;24.35;54.14;98068.34;4457059;32;20469;-82
2023/06/20 03:37:44;;;;;;;16.00;7.57;;;;;;;24.49;53.36;98063.38;4456628;32;20144;-82
2023/06/20 03:45:34;;;;;;;13.27;7.32;;;;;;;24.14;54.51;98068.66;5111331;26;20097;-80
2023/06/20 03:48:01;;;;;;;14.18;8.27;;;;;;;24.44;54.34;98077.97;4456891;32;20092;-80
2023/06/20 03:53:10;;;;;;;12.15;7.55;;;;;;;25.23;51.76;98070.00;5023662;26;20097;-80
2023/06/20 03:55:37;;;;;;;16.67;7.75;;;;;;;25.52;50.46;98079.34;4456873;32;20522;-81
2023/06/20 03:58:05;;;;;;;14.02;7.12;;;;;;;25.53;50.47;98086.31;4456582;32;20138;-80
2023/06/20 04:00:32;;;;;;;13.43;7.35;;;;;;;26.02;49.29;98081.19;4466394;26;20112;-81
2023/06/20 04:02:59;;;;;;;13.13;7.40;;;;;;;26.09;49.05;98090.16;4456601;32;20562;-80
2023/06/20 04:05:27;;;;;;;14.27;7.87;;;;;;;25.68;50.31;98082.06;4456624;32;20168;-81
2023/06/20 04:07:55;;;;;;;17.08;8.43;;;;;;;25.89;49.99;98089.59;4442869;32;20097;-81
2023/06/20 04:12:57;;;;;;;13.68;7.50;;;;;;;26.24;48.72;98102.56;4770920;26;20149;-80
2023/06/20 04:15:24;;;;;;;16.48;8.38;;;;;;;26.76;47.84;98099.66;4456681;32;20152;-80
2023/06/20 04:17:51;;;;;;;15.00;8.02;;;;;;;27.20;46.69;98088.69;4456703;32;20084;-81
2023/06/20 04:20:19;;;;;;;16.48;8.07;;;;;;;26.92;47.68;98093.53;4455595;32;20135;-81
2023/06/20 04:22:46;;;;;;;14.95;8.48;;;;;;;27.54;46.47;98098.16;4456696;32;20073;-81
2023/06/20 04:25:14;;;;;;;14.02;8.05;;;;;;;27.86;46.08;98097.22;4456391;32;20152;-80
2023/06/20 04:27:41;;;;;;;14.43;7.82;;;;;;;28.49;45.14;98101.50;4456593;32;20108;-81
2023/06/20 04:30:09;;;;;;;16.25;7.40;;;;;;;29.18;43.58;98098.78;4456348;32;20433;-81
2023/06/20 04:32:37;;;;;;;17.42;7.50;;;;;;;29.85;42.86;98102.16;4455390;32;20176;-81
2023/06/20 04:35:05;;;;;;;12.68;8.30;;;;;;;30.08;42.40;98112.66;4456527;32;20085;-81
2023/06/20 04:37:32;;;;;;;14.57;7.78;;;;;;;29.69;44.15;98112.19;4456601;32;20558;-81
2023/06/20 04:39:58;;;;;;;17.08;8.23;;;;;;;31.17;40.74;98109.81;4456233;32;20115;-81
2023/06/20 04:42:25;;;;;;;15.63;8.02;;;;;;;31.57;39.96;98105.53;4596210;26;20153;-81
2023/06/20 04:44:53;;;;;;;13.27;7.00;;;;;;;32.33;38.28;98116.16;4442660;32;20081;-81
2023/06/20 04:47:20;;;;;;;14.35;7.85;;;;;;;32.37;37.65;98112.84;4456160;32;20156;-81
2023/06/20 04:49:47;;;;;;;15.25;7.55;;;;;;;32.42;37.21;98117.56;4456357;32;20111;-81
2023/06/20 04:52:14;;;;;;;15.20;7.03;;;;;;;33.31;36.09;98115.34;4812417;26;20463;-82
2023/06/20 04:54:42;;;;;;;14.57;7.00;;;;;;;34.18;35.33;98121.25;4456257;32;20138;-82
2023/06/20 04:57:09;;;;;;;14.77;7.22;;;;;;;34.62;33.85;98127.59;4456408;32;20164;-81
2023/06/20 04:59:37;;;;;;;13.45;7.85;;;;;;;34.95;33.15;98124.69;4455465;32;20089;-81
2023/06/20 05:02:05;;;;;;;17.10;7.40;;;;;;;34.85;32.43;98129.69;4595922;26;20112;-81
2023/06/20 05:04:33;;;;;;;14.07;7.70;;;;;;;35.19;31.83;98126.50;4456285;32;20082;-82
2023/06/20 05:07:02;;;;;;;13.75;7.40;;;;;;;35.65;31.56;98117.19;4456364;32;20116;-82
2023/06/20 05:09:29;;;;;;;12.65;7.22;;;;;;;35.77;32.05;98134.19;4455816;32;20097;-82
2023/06/20 05:11:56;;;;;;;16.20;8.45;;;;;;;36.73;31.01;98127.94;4466108;26;20089;-82
2023/06/20 05:14:30;;;;;;;13.85;7.82;;;;;;;36.85;30.86;98128.00;4456194;32;20081;-82
2023/06/20 05:16:56;;;;;;;15.40;7.78;;;;;;;37.14;30.65;98138.91;4456049;32;20140;-82
2023/06/20 05:19:23;;;;;;;15.05;7.87;;;;;;;37.40;30.77;98130.38;4456013;32;20148;-81
2023/06/20 05:21:50;;;;;;;14.45;7.82;;;;;;;37.20;30.62;98130.69;4455801;32;20452;-81
2023/06/20 05:24:17;;;;;;;14.25;8.85;;;;;;;37.55;30.04;98132.59;4457255;32;20121;-81
2023/06/20 05:26:44;;;;;;;20.35;8.80;;;;;;;36.58;30.62;98129.41;4456249;32;20179;-80
2023/06/20 05:29:14;;;;;;;14.02;8.73;;;;;;;35.88;31.52;98130.78;4455677;32;20117;-80
2023/06/20 05:34:16;;;;;;;14.17;8.37;;;;;;;35.81;30.44;98127.31;5133127;26;20171;-83
2023/06/20 05:36:46;;;;;;;11.25;7.62;;;;;;;36.04;30.57;98126.63;4455698;32;20159;-83
2023/06/20 05:39:13;;;;;;;12.07;7.40;;;;;;;36.39;29.94;98136.75;4456180;32;20153;-84
2023/06/20 05:41:42;;;;;;;13.35;7.68;;;;;;;36.30;30.19;98138.91;4455947;32;20147;-84
2023/06/20 05:44:09;;;;;;;14.77;7.87;;;;;;;35.25;31.56;98135.56;4462047;32;20085;-84
2023/06/20 05:46:35;;;;;;;13.57;7.87;;;;;;;35.23;32.04;98141.13;4456102;32;20168;-84
2023/06/20 05:49:03;;;;;;;13.30;7.60;;;;;;;34.60;33.58;98146.56;4456119;32;20120;-83
2023/06/20 05:51:30;;;;;;;12.90;7.47;;;;;;;34.91;32.74;98143.06;4456388;32;20115;-82
2023/06/20 05:53:57;;;;;;;12.10;7.82;;;;;;;33.79;35.10;98135.59;4455993;32;20440;-78
2023/06/20 05:56:24;;;;;;;15.52;8.60;;;;;;;31.33;38.47;98139.66;4455677;32;20159;-78
2023/06/20 05:58:51;;;;;;;15.02;7.50;;;;;;;30.25;40.19;98134.56;4456100;32;20470;-78
2023/06/20 06:01:18;;;;;;;13.45;8.45;;;;;;;31.63;38.76;98134.91;4456150;32;20157;-78
2023/06/20 06:03:47;;;;;;;13.07;8.30;;;;;;;33.55;35.37;98140.63;4455717;32;20635;-80
2023/06/20 06:06:15;;;;;;;13.43;8.40;;;;;;;32.59;35.32;98144.72;4455650;32;20093;-81
2023/06/20 06:08:43;;;;;;;13.57;8.20;;;;;;;33.55;34.90;98151.31;4442282;32;20139;-82
2023/06/20 06:11:10;;;;;;;14.00;8.52;;;;;;;34.63;33.05;98156.84;4459226;32;20062;-82
2023/06/20 06:13:39;;;;;;;14.23;8.32;;;;;;;33.57;34.81;98151.94;4459087;32;20146;-79
2023/06/20 06:16:06;;;;;;;13.62;8.57;;;;;;;33.13;34.94;98157.94;4456517;32;20097;-81
2023/06/20 06:18:34;;;;;;;15.57;8.65;;;;;;;33.58;35.12;98155.41;4456663;32;20089;-81
2023/06/20 06:21:01;;;;;;;16.92;8.10;;;;;;;35.39;32.17;98161.22;4458274;32;20106;-81
2023/06/20 06:23:28;;;;;;;13.35;8.25;;;;;;;34.70;32.30;98162.19;4459368;32;20097;-81
2023/06/20 06:25:55;;;;;;;13.75;8.63;;;;;;;35.65;30.75;98165.50;4459404;32;20165;-81
2023/06/20 06:28:23;;;;;;;15.65;8.75;;;;;;;34.68;32.58;98162.41;4458044;32;20075;-81
2023/06/20 06:30:50;;;;;;;15.27;8.75;;;;;;;35.10;32.42;98157.34;4458463;32;20210;-81
2023/06/20 06:33:19;;;;;;;12.75;8.65;;;;;;;34.47;33.67;98160.06;4457776;32;20474;-81
2023/06/20 06:35:47;;;;;;;14.18;8.48;;;;;;;34.02;34.45;98165.38;4456976;32;20161;-81
2023/06/20 06:38:14;;;;;;;16.25;8.68;;;;;;;34.52;33.02;98168.25;4441374;32;20121;-80
2023/06/20 06:40:43;;;;;;;14.38;9.10;;;;;;;33.66;34.13;98171.25;4454983;32;20107;-80
2023/06/20 06:43:10;;;;;;;13.90;9.02;;;;;;;33.38;35.10;98160.81;4455097;32;20077;-80
2023/06/20 06:45:37;;;;;;;13.65;8.82;;;;;;;32.86;36.45;98166.97;4454851;32;20157;-80
2023/06/20 06:48:04;;;;;;;19.23;8.93;;;;;;;33.44;35.98;98161.84;4441264;32;20119;-80
2023/06/20 06:50:31;;;;;;;14.63;8.70;;;;;;;32.80;36.89;98163.25;4454784;32;20129;-80
2023/06/20 06:52:58;;;;;;;14.02;8.98;;;;;;;32.63;36.77;98160.12;4455225;32;20128;-80
2023/06/20 06:55:25;;;;;;;16.67;10.93;;;;;;;32.39;36.44;98174.06;4455651;32;20166;-79
2023/06/20 06:57:53;;;;;;;14.70;9.45;;;;;;;33.20;36.12;98174.81;4455671;32;20497;-81
2023/06/20 07:00:20;;;;;;;13.38;7.90;;;;;;;33.43;35.39;98179.75;4455298;32;20092;-80
2023/06/20 07:02:47;;;;;;;14.27;8.68;;;;;;;33.99;34.09;98170.34;4455223;32;20459;-80
2023/06/20 07:05:14;;;;;;;13.77;8.38;;;;;;;32.81;35.61;98175.56;4455064;32;20093;-80
2023/06/20 07:07:41;;;;;;;15.13;8.85;;;;;;;33.29;35.32;98178.09;4455338;32;20093;-78
2023/06/20 07:10:09;;;;;;;16.27;8.27;;;;;;;34.50;33.82;98183.72;4454851;32;20154;-78
2023/06/20 07:12:36;;;;;;;13.68;8.43;;;;;;;34.77;32.82;98179.84;4454910;32;20157;-78
2023/06/20 07:15:04;;;;;;;13.02;8.75;;;;;;;34.23;34.50;98181.16;4440623;32;20160;-78
2023/06/20 07:17:31;;;;;;;15.35;9.55;;;;;;;33.67;35.91;98180.91;4454851;32;20097;-79
2023/06/20 07:19:58;;;;;;;13.60;8.52;;;;;;;34.77;32.95;98179.84;4454767;32;20103;-79
2023/06/20 07:22:25;;;;;;;11.93;7.55;;;;;;;35.48;32.58;98184.03;4455142;32;20149;-79
2023/06/20 07:24:52;;;;;;;14.00;8.23;;;;;;;34.73;33.58;98177.81;4443038;32;20132;-79
2023/06/20 07:27:22;;;;;;;12.65;7.65;;;;;;;34.84;33.27;98178.97;4457002;32;20199;-79
2023/06/20 07:29:49;;;;;;;13.93;7.53;;;;;;;33.26;35.97;98167.78;4456446;32;20462;-78
2023/06/20 07:32:16;;;;;;;12.15;7.45;;;;;;;33.10;37.11;98171.72;4457203;32;20085;-78
2023/06/20 07:34:43;;;;;;;13.95;7.65;;;;;;;33.35;35.79;98175.44;4456750;32;20160;-78
2023/06/20 07:37:10;;;;;;;12.57;8.15;;;;;;;34.56;33.75;98179.34;4457056;32;20398;-78
2023/06/20 07:39:42;;;;;;;13.13;7.53;;;;;;;33.91;34.69;98182.09;4456637;32;20107;-79
2023/06/20 07:42:10;;;;;;;12.73;7.62;;;;;;;33.98;34.36;98172.22;4456965;32;20086;-79
2023/06/20 07:44:37;;;;;;;14.30;8.55;;;;;;;34.59;32.90;98177.09;4456799;32;20113;-79
2023/06/20 07:47:04;;;;;;;11.48;7.40;;;;;;;34.94;32.96;98182.84;4443358;32;20144;-80
2023/06/20 07:49:31;;;;;;;14.02;7.72;;;;;;;34.60;33.04;98180.59;4456458;32;20085;-80
2023/06/20 07:51:58;;;;;;;11.75;7.37;;;;;;;34.43;34.08;98180.25;4456844;32;20085;-80
2023/06/20 07:54:25;;;;;;;13.18;7.30;;;;;;;35.32;32.08;98181.91;4456927;32;20478;-80
2023/06/20 07:56:52;;;;;;;15.60;7.35;;;;;;;36.21;30.22;98183.25;4456516;32;20129;-80
2023/06/20 07:59:19;;;;;;;14.98;9.65;;;;;;;36.52;30.35;98181.41;4456735;32;20455;-80
2023/06/20 08:01:46;;;;;;;15.13;8.65;;;;;;;34.60;32.32;98180.59;4442935;32;20082;-80
2023/06/20 08:04:13;;;;;;;11.60;7.18;;;;;;;35.42;30.81;98181.44;4456212;32;20130;-80
2023/06/20 08:06:40;;;;;;;14.15;6.95;;;;;;;36.73;29.18;98187.09;4459999;32;20069;-79
2023/06/20 08:09:07;;;;;;;14.57;8.07;;;;;;;36.74;30.90;98193.28;4445373;32;20088;-79
2023/06/20 08:11:35;;;;;;;14.70;9.15;;;;;;;35.04;30.85;98187.72;4464371;32;20093;-80
2023/06/20 08:14:01;;;;;;;10.77;6.37;;;;;;;35.37;31.72;98192.78;4466476;32;20057;-80
2023/06/20 08:16:28;;;;;;;11.10;6.45;;;;;;;35.61;31.43;98200.00;4463954;32;20077;-80
2023/06/20 08:18:55;;;;;;;12.20;6.72;;;;;;;36.29;29.27;98192.88;4462233;32;20104;-79
2023/06/20 08:21:22;;;;;;;13.43;7.28;;;;;;;34.82;31.85;98191.78;4462649;32;20153;-79
2023/06/20 08:23:49;;;;;;;13.50;7.80;;;;;;;34.41;33.33;98199.22;4462135;32;20107;-79
2023/06/20 08:26:16;;;;;;;12.50;6.85;;;;;;;35.39;30.10;98197.97;4461243;32;20161;-79
2023/06/20 08:28:43;;;;;;;12.27;6.80;;;;;;;36.71;29.53;98199.12;4460052;32;20085;-79
2023/06/20 08:31:10;;;;;;;15.18;10.60;;;;;;;36.13;30.32;98203.16;4459124;32;20730;-80
2023/06/20 08:33:37;;;;;;;11.95;6.47;;;;;;;35.92;28.86;98198.25;4458236;32;20111;-79
2023/06/20 08:36:05;;;;;;;17.67;7.10;;;;;;;36.62;29.39;98197.81;4457718;32;20722;-80
2023/06/20 08:38:34;;;;;;;12.18;6.28;;;;;;;36.53;29.98;98194.63;4457731;32;20098;-79
2023/06/20 08:41:03;;;;;;;11.18;7.10;;;;;;;37.23;28.93;98194.00;4458795;32;20141;-79
2023/06/20 08:43:30;;;;;;;12.25;6.65;;;;;;;36.26;30.42;98185.25;4457799;32;20097;-80
2023/06/20 08:45:57;;;;;;;17.83;9.88;;;;;;;37.36;29.38;98188.41;4456461;32;20131;-79
2023/06/20 08:48:24;;;;;;;17.45;10.77;;;;;;;35.42;29.89;98189.50;4456374;32;20144;-79
2023/06/20 08:50:52;;;;;;;12.95;6.62;;;;;;;35.88;28.49;98184.47;4442842;32;20104;-79
2023/06/20 08:53:20;;;;;;;10.93;6.65;;;;;;;34.87;31.24;98187.37;4456807;32;20053;-80
2023/06/20 08:55:51;;;;;;;10.90;6.53;;;;;;;35.05;30.56;98190.19;4449645;32;20077;-78
2023/06/20 08:58:18;;;;;;;12.35;6.95;;;;;;;35.25;30.24;98184.66;4466664;32;20057;-79
2023/06/20 09:00:47;;;;;;;13.23;7.00;;;;;;;35.77;30.46;98195.94;4469441;32;20081;-79
2023/06/20 09:03:15;;;;;;;12.15;6.45;;;;;;;35.92;29.41;98195.56;4452884;32;20120;-80
2023/06/20 09:05:42;;;;;;;13.52;6.78;;;;;;;37.05;29.04;98190.34;4457670;32;20089;-78
2023/06/20 09:08:14;;;;;;;10.98;6.45;;;;;;;36.29;29.05;98190.19;4460577;32;20061;-77
2023/06/20 09:10:42;;;;;;;11.12;6.62;;;;;;;37.02;28.15;98179.22;4447324;32;20106;-77
2023/06/20 09:13:10;;;;;;;11.27;6.70;;;;;;;36.42;29.18;98187.34;4458537;32;20110;-77
2023/06/20 09:15:38;;;;;;;16.52;6.53;;;;;;;35.76;29.91;98190.78;4459558;32;20078;-77
2023/06/20 09:18:08;;;;;;;12.45;6.20;;;;;;;35.93;28.92;98198.03;4460257;32;20447;-77
2023/06/20 09:20:37;;;;;;;11.70;6.10;;;;;;;36.61;28.51;98193.50;4444363;32;20162;-77
2023/06/20 09:23:04;;;;;;;10.98;6.40;;;;;;;36.01;28.82;98196.09;4458823;32;20121;-77
2023/06/20 09:25:31;;;;;;;27.80;18.98;;;;;;;36.52;27.76;98197.53;4444866;32;20160;-77
2023/06/20 09:27:58;;;;;;;12.43;7.57;;;;;;;35.55;28.28;98197.41;4458660;32;20102;-77
2023/06/20 09:30:30;;;;;;;11.18;6.10;;;;;;;35.93;29.31;98206.09;4444051;32;20149;-77
2023/06/20 09:33:03;;;;;;;10.60;7.30;;;;;;;35.81;28.03;98209.72;4457043;32;20102;-77
2023/06/20 09:35:31;;;;;;;12.52;6.93;;;;;;;35.70;27.94;98205.09;4456142;32;20093;-77
2023/06/20 09:38:02;;;;;;;27.10;7.18;;;;;;;35.14;29.63;98208.69;4457015;32;20104;-77
2023/06/20 09:40:29;;;;;;;12.75;6.85;;;;;;;36.23;28.33;98208.00;4457491;32;20081;-77
2023/06/20 09:42:57;;;;;;;14.52;7.15;;;;;;;35.84;29.09;98209.28;4457265;32;20468;-77
2023/06/20 09:45:25;;;;;;;15.32;6.12;;;;;;;36.77;28.03;98198.19;4457147;32;20119;-77
2023/06/20 09:47:51;;;;;;;11.02;6.40;;;;;;;36.75;27.53;98197.59;4457584;32;20103;-77
2023/06/20 09:50:19;;;;;;;12.43;6.30;;;;;;;36.94;27.07;98198.38;4460401;32;20126;-77
2023/06/20 09:52:55;;;;;;;10.80;6.28;;;;;;;36.93;27.30;98189.50;4442078;32;20098;-76
2023/06/20 09:55:23;;;;;;;13.00;6.62;;;;;;;36.70;27.19;98192.94;4456547;32;20097;-76
2023/06/20 09:57:53;;;;;;;12.30;6.53;;;;;;;36.98;27.11;98188.81;4441900;32;20103;-76
2023/06/20 10:00:22;;;;;;;12.55;6.80;;;;;;;37.00;26.96;98187.50;4441975;32;20448;-75
2023/06/20 10:02:49;;;;;;;13.20;6.70;;;;;;;37.24;26.37;98188.38;4448241;32;20116;-78
2023/06/20 10:05:19;;;;;;;12.90;6.55;;;;;;;36.35;27.25;98183.91;4463533;32;20093;-78
2023/06/20 10:07:47;;;;;;;12.52;6.53;;;;;;;36.50;27.08;98189.72;4463716;32;20109;-78
2023/06/20 10:10:31;;;;;;;14.77;6.75;;;;;;;37.46;27.28;98188.63;4465802;32;20081;-78
2023/06/20 10:12:58;;;;;;;10.38;6.53;;;;;;;37.44;26.02;98195.31;4468345;32;20093;-80
2023/06/20 10:15:26;;;;;;;13.00;7.20;;;;;;;36.85;27.39;98186.31;4464754;32;20105;-78
2023/06/20 10:17:53;;;;;;;11.57;7.25;;;;;;;36.34;28.84;98187.63;4462698;32;20138;-78
2023/06/20 10:20:31;;;;;;;11.45;7.30;;;;;;;34.92;29.43;98179.56;4466639;32;20079;-79
2023/06/20 10:23:03;;;;;;;12.20;6.62;;;;;;;35.52;28.60;98190.62;4466837;32;20120;-78
2023/06/20 10:25:31;;;;;;;11.27;6.68;;;;;;;36.60;28.56;98197.22;4466251;32;20152;-78
2023/06/20 10:28:05;;;;;;;10.77;6.32;;;;;;;36.41;27.78;98186.53;4464744;32;20068;-78
2023/06/20 10:30:57;;;;;;;11.38;6.70;;;;;;;35.67;27.60;98189.44;4467275;32;20077;-78
2023/06/20 10:33:35;;;;;;;11.20;6.20;;;;;;;36.50;27.57;98177.09;4466455;32;20093;-78
2023/06/20 10:36:09;;;;;;;12.32;7.07;;;;;;;35.79;27.29;98182.28;4455666;32;20172;-78
2023/06/20 10:38:52;;;;;;;11.02;6.35;;;;;;;36.82;27.01;98174.16;4458745;32;20156;-77
2023/06/20 10:41:23;;;;;;;13.40;6.95;;;;;;;36.87;26.20;98174.28;4462438;32;20073;-81
2023/06/20 10:43:58;;;;;;;11.65;6.57;;;;;;;36.86;27.77;98172.66;4535261;26;20089;-78
2023/06/20 10:46:29;;;;;;;12.35;6.40;;;;;;;37.49;25.63;98173.88;4451365;32;20077;-81
2023/06/20 10:48:56;;;;;;;11.12;6.60;;;;;;;36.04;25.42;98172.28;4464784;32;20057;-80
2023/06/20 10:51:23;;;;;;;11.82;6.40;;;;;;;36.05;26.94;98159.69;4465012;32;20084;-81
2023/06/20 10:53:50;;;;;;;10.93;6.40;;;;;;;37.05;25.67;98155.38;4467141;32;20105;-81
2023/06/20 10:56:27;;;;;;;11.95;6.25;;;;;;;36.61;26.90;98159.38;4469317;32;20746;-81
2023/06/20 10:59:25;;;;;;;10.75;6.28;;;;;;;36.34;26.56;98152.69;4471154;32;20068;-81
2023/06/20 11:01:52;;;;;;;14.18;8.70;;;;;;;36.60;26.69;98149.66;4470786;32;20156;-80
2023/06/20 11:04:20;;;;;;;12.23;6.37;;;;;;;36.40;27.30;98149.94;4471342;32;20137;-80
2023/06/20 11:06:47;;;;;;;14.10;9.77;;;;;;;37.34;25.54;98156.34;4468256;32;20084;-80
2023/06/20 11:09:24;;;;;;;13.10;9.05;;;;;;;35.89;26.40;98147.69;4467064;32;20061;-79
2023/06/20 11:11:52;;;;;;;11.55;6.57;;;;;;;35.45;26.86;98162.22;4471226;32;20107;-78
2023/06/20 11:14:20;;;;;;;11.07;6.22;;;;;;;35.04;26.55;98150.19;4469036;32;20070;-80
2023/06/20 11:16:48;;;;;;;11.18;6.22;;;;;;;35.74;27.46;98155.31;4469426;32;20054;-80
2023/06/20 11:19:21;;;;;;;10.25;5.82;;;;;;;35.64;26.00;98164.69;4469080;32;20057;-80
2023/06/20 11:21:51;;;;;;;13.35;5.70;;;;;;;36.53;25.37;98153.50;4468450;32;20475;-79
2023/06/20 11:24:19;;;;;;;9.50;5.35;;;;;;;35.24;25.97;98152.69;4693222;26;20084;-79
2023/06/20 11:26:47;;;;;;;11.55;5.95;;;;;;;36.22;26.51;98161.53;4470796;32;20056;-79
2023/06/20 11:29:13;;;;;;;10.30;5.87;;;;;;;36.29;26.42;98158.75;4456243;32;20085;-79
2023/06/20 11:31:40;;;;;;;10.20;5.60;;;;;;;36.22;25.50;98150.78;4461101;32;20088;-79
2023/06/20 11:34:09;;;;;;;9.63;5.70;;;;;;;35.96;23.23;98161.06;4467070;32;20058;-79
2023/06/20 11:36:38;;;;;;;9.95;5.87;;;;;;;36.46;24.51;98159.78;4469748;32;20099;-79
2023/06/20 11:39:27;;;;;;;21.65;5.90;;;;;;;36.44;25.07;98164.56;4470696;32;20101;-79
2023/06/20 11:41:54;;;;;;;10.15;5.43;;;;;;;36.50;24.65;98160.97;4465726;26;20086;-81
2023/06/20 11:44:22;;;;;;;10.23;5.62;;;;;;;36.90;24.44;98157.72;4452514;32;20074;-79
2023/06/20 11:46:49;;;;;;;11.12;6.25;;;;;;;36.37;23.41;98153.09;4445490;32;20553;-80
2023/06/20 11:49:30;;;;;;;13.20;6.60;;;;;;;36.91;23.78;98142.41;4444195;32;20146;-79
2023/06/20 11:51:57;;;;;;;10.43;6.07;;;;;;;36.47;25.36;98156.06;4448379;32;20108;-79
2023/06/20 11:54:24;;;;;;;11.27;6.45;;;;;;;36.30;25.16;98149.66;4445733;32;20109;-79
2023/06/20 11:56:52;;;;;;;15.15;6.43;;;;;;;37.00;25.59;98157.09;4449120;32;20361;-81
2023/06/20 11:59:23;;;;;;;11.95;6.97;;;;;;;37.54;24.98;98150.59;4448995;32;20093;-79
2023/06/20 12:01:50;;;;;;;11.57;6.57;;;;;;;37.07;26.69;98160.50;4444652;32;20061;-79
2023/06/20 12:04:21;;;;;;;14.10;7.22;;;;;;;37.20;26.67;98151.41;4445898;32;20094;-80
2023/06/20 12:06:53;;;;;;;10.65;6.82;;;;;;;37.58;27.14;98162.53;4444631;32;20097;-79
2023/06/20 12:09:24;;;;;;;12.00;6.30;;;;;;;37.29;27.72;98147.34;4446216;32;20154;-79
2023/06/20 12:11:55;;;;;;;11.57;8.02;;;;;;;36.03;27.96;98137.59;4452805;32;20097;-80
2023/06/20 12:14:24;;;;;;;11.23;7.20;;;;;;;35.48;30.22;98140.28;4451972;32;20070;-80
2023/06/20 12:16:52;;;;;;;14.65;7.70;;;;;;;35.85;30.44;98135.75;4451390;32;20081;-80